Time;durP1;ratioP1;P1;durP2;ratioP2;P2;SDS_P1;SDS_P2;PMS_P1;PMS_P2;Temp;Humidity;BMP_temperature;BMP_pressure;BME280_temperature;BME280_humidity;BME280_pressure;Samples;Min_cycle;Max_cycle;Signal;HPM_P1;HPM_P2
2023/04/23 00:02:01;;;;;;;10.93;9.82;;;19.40;66.20;;;;;;5093462;28;20208;-63
2023/04/23 00:04:52;;;;;;;10.73;9.40;;;19.10;79.30;;;;;;5093232;28;20240;-64
2023/04/23 00:07:42;;;;;;;10.10;9.10;;;19.30;66.50;;;;;;5099954;28;20285;-63
2023/04/23 00:10:30;;;;;;;10.63;9.52;;;19.30;66.00;;;;;;5100923;28;20613;-63
2023/04/23 00:13:20;;;;;;;11.75;9.60;;;19.30;66.60;;;;;;5095786;28;20279;-64
2023/04/23 00:16:09;;;;;;;9.48;8.00;;;19.30;66.70;;;;;;5095303;28;20226;-64
2023/04/23 00:18:57;;;;;;;11.50;10.50;;;19.30;66.50;;;;;;5094716;28;20215;-63
2023/04/23 00:21:46;;;;;;;10.85;9.77;;;19.30;66.40;;;;;;5091900;28;20200;-62
2023/04/23 00:24:35;;;;;;;9.98;8.40;;;19.30;66.30;;;;;;5092326;28;20204;-63
2023/04/23 00:27:23;;;;;;;11.32;8.82;;;19.40;66.30;;;;;;5093105;28;20672;-64
2023/04/23 00:30:13;;;;;;;10.80;8.30;;;19.40;66.00;;;;;;5095481;28;20244;-64
2023/04/23 00:33:01;;;;;;;13.13;8.13;;;19.40;65.80;;;;;;5095389;28;20661;-64
2023/04/23 00:35:49;;;;;;;8.13;7.32;;;19.40;65.90;;;;;;5095548;28;20646;-64
2023/04/23 00:38:37;;;;;;;7.82;7.13;;;19.40;66.00;;;;;;5095033;28;20307;-64
2023/04/23 00:41:27;;;;;;;7.45;6.57;;;19.40;65.90;;;;;;5095045;28;20196;-64
2023/04/23 00:44:15;;;;;;;9.52;8.07;;;19.50;66.10;;;;;;5094990;28;20192;-64
2023/04/23 00:47:06;;;;;;;9.68;7.03;;;19.50;65.80;;;;;;5095862;28;20230;-63
2023/04/23 00:49:54;;;;;;;14.20;7.97;;;19.50;66.90;;;;;;5095528;28;20227;-64
2023/04/23 00:52:42;;;;;;;10.55;8.85;;;19.50;68.00;;;;;;5096056;28;20589;-64
2023/04/23 00:55:31;;;;;;;11.85;8.65;;;19.50;69.70;;;;;;5095838;28;20295;-64
2023/04/23 00:58:19;;;;;;;10.57;8.73;;;19.50;69.40;;;;;;5114357;28;20276;-63
2023/04/23 01:01:08;;;;;;;9.57;7.78;;;19.50;70.20;;;;;;5115589;28;20654;-63
2023/04/23 01:03:58;;;;;;;10.45;7.85;;;19.50;70.20;;;;;;5115481;28;20220;-64
2023/04/23 01:06:47;;;;;;;8.23;7.10;;;19.50;71.60;;;;;;5115178;28;20640;-64
2023/04/23 01:09:35;;;;;;;7.35;5.97;;;19.40;71.10;;;;;;5114305;28;20202;-62
2023/04/23 01:12:23;;;;;;;10.27;7.50;;;19.50;71.80;;;;;;5114112;28;20316;-63
2023/04/23 01:15:12;;;;;;;7.50;6.68;;;19.40;72.20;;;;;;5115410;28;20750;-63
2023/04/23 01:18:00;;;;;;;7.35;6.65;;;19.40;72.40;;;;;;5115297;28;20268;-63
2023/04/23 01:20:50;;;;;;;7.45;6.80;;;19.30;72.80;;;;;;5115349;28;20278;-64
2023/04/23 01:23:40;;;;;;;7.22;6.63;;;19.30;73.30;;;;;;5115565;28;20264;-64
2023/04/23 01:26:28;;;;;;;10.30;7.10;;;19.30;73.40;;;;;;5115027;28;20724;-64
2023/04/23 01:29:18;;;;;;;8.63;6.70;;;19.30;74.00;;;;;;5117246;28;20569;-64
2023/04/23 01:32:07;;;;;;;7.97;7.28;;;19.30;74.60;;;;;;5107862;28;20214;-64
2023/04/23 01:34:56;;;;;;;9.07;7.40;;;19.00;89.20;;;;;;5101743;28;20575;-65
2023/04/23 01:37:45;;;;;;;7.95;7.25;;;19.20;76.00;;;;;;5126547;28;20278;-64
2023/04/23 01:40:34;;;;;;;7.53;6.80;;;19.20;76.30;;;;;;5122626;28;20286;-63
2023/04/23 01:43:23;;;;;;;7.25;6.60;;;19.20;76.80;;;;;;5122416;28;20223;-64
2023/04/23 01:46:12;;;;;;;6.80;6.15;;;19.20;76.60;;;;;;5122970;28;20270;-64
2023/04/23 01:49:00;;;;;;;7.47;6.28;;;19.20;76.90;;;;;;5123075;28;20191;-64
2023/04/23 01:51:48;;;;;;;7.70;6.90;;;19.30;77.20;;;;;;5121658;28;20198;-63
2023/04/23 01:54:36;;;;;;;7.65;6.95;;;19.30;77.50;;;;;;5122627;28;20642;-64
2023/04/23 01:57:26;;;;;;;7.30;6.70;;;19.30;77.40;;;;;;5111390;28;20256;-63
2023/04/23 02:00:16;;;;;;;9.63;8.10;;;19.30;77.40;;;;;;5101902;28;20220;-64
2023/04/23 02:03:04;;;;;;;10.30;7.55;;;19.40;77.50;;;;;;5100299;28;20219;-64
2023/04/23 02:05:54;;;;;;;9.85;7.15;;;19.40;77.40;;;;;;5102633;28;20231;-64
2023/04/23 02:08:42;;;;;;;8.40;7.50;;;19.40;77.60;;;;;;5101481;28;20687;-64
2023/04/23 02:11:30;;;;;;;6.97;6.28;;;19.40;77.70;;;;;;5102464;28;20260;-66
2023/04/23 02:14:20;;;;;;;9.23;6.90;;;19.40;78.20;;;;;;5102097;28;20204;-63
2023/04/23 02:17:08;;;;;;;7.00;6.40;;;19.40;77.10;;;;;;5102908;28;20204;-64
2023/04/23 02:19:56;;;;;;;8.18;7.10;;;19.40;77.70;;;;;;5103729;28;20221;-64
2023/04/23 02:22:45;;;;;;;7.95;7.15;;;19.40;77.30;;;;;;5106172;28;20302;-64
2023/04/23 02:25:34;;;;;;;10.30;7.28;;;19.30;78.20;;;;;;5106278;28;20216;-64
2023/04/23 02:28:22;;;;;;;10.75;7.50;;;19.30;78.20;;;;;;5106510;28;20278;-65
2023/04/23 02:31:11;;;;;;;8.63;7.72;;;19.30;78.30;;;;;;5099762;28;20196;-64
2023/04/23 02:33:59;;;;;;;7.05;6.28;;;19.30;79.00;;;;;;5097828;28;20615;-64
2023/04/23 02:36:47;;;;;;;11.15;7.00;;;19.30;79.20;;;;;;5096714;28;20222;-64
2023/04/23 02:39:37;;;;;;;7.68;6.90;;;19.20;79.60;;;;;;5097352;28;20321;-64
2023/04/23 02:42:26;;;;;;;8.30;6.85;;;19.30;79.90;;;;;;5096976;28;20210;-64
2023/04/23 02:45:14;;;;;;;7.05;6.35;;;19.20;78.50;;;;;;5095909;28;20341;-64
2023/04/23 02:48:03;;;;;;;7.63;6.40;;;19.20;79.30;;;;;;5097221;28;20200;-64
2023/04/23 02:50:52;;;;;;;6.75;6.05;;;19.20;79.40;;;;;;5096856;28;20192;-64
2023/04/23 02:53:40;;;;;;;6.93;6.07;;;19.20;79.50;;;;;;5096554;28;20200;-64
2023/04/23 02:56:28;;;;;;;8.65;6.50;;;19.10;78.90;;;;;;5097570;28;20227;-63
2023/04/23 02:59:16;;;;;;;8.63;6.72;;;19.10;78.40;;;;;;5096151;28;20208;-64
2023/04/23 03:02:04;;;;;;;7.00;6.30;;;19.10;78.70;;;;;;5097700;28;20199;-63
2023/04/23 03:04:54;;;;;;;7.20;6.50;;;18.90;90.40;;;;;;5095698;28;20676;-64
2023/04/23 03:07:42;;;;;;;7.88;6.30;;;19.10;79.40;;;;;;5095387;28;20232;-64
2023/04/23 03:10:30;;;;;;;7.40;6.47;;;19.10;79.30;;;;;;5096198;28;20275;-64
2023/04/23 03:13:18;;;;;;;7.70;6.00;;;19.10;79.30;;;;;;5095135;28;20200;-64
2023/04/23 03:16:06;;;;;;;11.15;7.13;;;19.10;79.20;;;;;;5096606;28;20413;-64
2023/04/23 03:18:54;;;;;;;7.65;6.38;;;19.10;79.00;;;;;;5095734;28;20203;-64
2023/04/23 03:21:44;;;;;;;7.85;7.03;;;19.20;79.20;;;;;;5094767;28;20227;-64
2023/04/23 03:24:32;;;;;;;8.75;6.55;;;19.20;79.70;;;;;;5094504;28;20200;-64
2023/04/23 03:27:20;;;;;;;7.30;6.45;;;19.20;79.60;;;;;;5096593;28;20208;-64
2023/04/23 03:30:09;;;;;;;7.50;6.30;;;19.20;79.80;;;;;;5095920;28;20275;-63
2023/04/23 03:32:57;;;;;;;9.57;7.18;;;19.20;80.90;;;;;;5094404;28;20280;-64
2023/04/23 03:35:46;;;;;;;9.40;6.18;;;19.20;80.30;;;;;;5094172;28;20216;-63
2023/04/23 03:38:35;;;;;;;6.40;5.80;;;19.20;80.00;;;;;;5096555;28;20686;-63
2023/04/23 03:41:23;;;;;;;8.25;6.80;;;19.20;80.00;;;;;;5095935;28;20220;-64
2023/04/23 03:44:11;;;;;;;7.95;6.70;;;19.20;79.50;;;;;;5095698;28;20294;-64
2023/04/23 03:46:59;;;;;;;6.88;6.18;;;19.10;78.80;;;;;;5095946;28;20224;-64
2023/04/23 03:49:47;;;;;;;6.63;5.88;;;19.20;79.00;;;;;;5095658;28;20275;-64
2023/04/23 03:52:35;;;;;;;7.65;6.72;;;19.20;78.80;;;;;;5095277;28;20200;-64
2023/04/23 03:55:25;;;;;;;6.28;5.78;;;19.20;80.00;;;;;;5096022;28;20648;-64
2023/04/23 03:58:13;;;;;;;6.90;6.20;;;19.10;80.10;;;;;;5112097;28;20653;-64
2023/04/23 04:01:01;;;;;;;8.68;5.60;;;19.10;80.70;;;;;;5113676;28;20216;-63
2023/04/23 04:03:49;;;;;;;6.13;5.53;;;19.00;80.70;;;;;;5113910;28;20195;-63
2023/04/23 04:06:37;;;;;;;6.82;5.70;;;19.00;81.10;;;;;;5135497;22;20696;-64
2023/04/23 04:09:25;;;;;;;7.22;6.45;;;19.00;81.50;;;;;;5113378;28;20207;-64
2023/04/23 04:12:15;;;;;;;7.75;6.75;;;19.00;82.20;;;;;;5113420;28;20199;-64
2023/04/23 04:15:04;;;;;;;6.93;6.22;;;18.90;82.30;;;;;;5113152;28;20291;-64
2023/04/23 04:17:52;;;;;;;7.68;6.50;;;18.90;81.60;;;;;;5092707;28;20192;-64
2023/04/23 04:20:43;;;;;;;6.55;5.95;;;18.90;82.60;;;;;;5092863;28;20265;-64
2023/04/23 04:23:32;;;;;;;7.32;5.78;;;18.90;82.80;;;;;;5092055;28;20681;-64
2023/04/23 04:26:20;;;;;;;7.15;5.60;;;18.90;82.90;;;;;;5092938;28;20791;-65
2023/04/23 04:29:09;;;;;;;7.63;6.15;;;18.90;83.70;;;;;;5093030;28;20253;-64
2023/04/23 04:31:58;;;;;;;6.88;6.22;;;18.90;84.60;;;;;;5092217;28;20242;-65
2023/04/23 04:34:46;;;;;;;8.85;6.18;;;18.80;86.20;;;;;;5092802;28;20201;-64
2023/04/23 04:37:35;;;;;;;7.72;5.63;;;18.80;85.70;;;;;;5093402;28;20198;-64
2023/04/23 04:40:25;;;;;;;6.90;6.20;;;18.80;85.80;;;;;;5093272;28;20576;-64
2023/04/23 04:43:13;;;;;;;7.13;6.05;;;18.90;87.00;;;;;;5091635;28;20207;-64
2023/04/23 04:46:02;;;;;;;7.53;6.80;;;19.00;86.30;;;;;;5092184;28;20220;-65
2023/04/23 04:48:54;;;;;;;7.57;6.82;;;18.90;86.30;;;;;;5091800;28;20195;-64
2023/04/23 04:51:42;;;;;;;7.60;6.80;;;18.90;86.50;;;;;;5092283;28;20196;-64
2023/04/23 04:54:30;;;;;;;7.60;6.60;;;18.90;86.20;;;;;;5092087;28;20704;-64
2023/04/23 04:57:20;;;;;;;7.05;6.30;;;18.90;87.00;;;;;;5092586;28;20303;-64
2023/04/23 05:00:26;;;;;;;7.03;5.47;;;18.80;85.90;;;;;;5091066;28;20218;-64
2023/04/23 05:03:16;;;;;;;6.90;6.28;;;18.80;85.10;;;;;;5092088;28;20648;-64
2023/04/23 05:06:04;;;;;;;6.68;6.03;;;18.80;85.20;;;;;;5091561;28;20289;-64
2023/04/23 05:08:52;;;;;;;6.88;6.28;;;18.80;85.90;;;;;;5090940;28;20200;-64
2023/04/23 05:11:40;;;;;;;6.40;5.53;;;18.90;86.20;;;;;;5091377;28;20196;-64
2023/04/23 05:14:28;;;;;;;6.70;6.00;;;18.80;85.50;;;;;;5091484;28;20204;-64
2023/04/23 05:17:16;;;;;;;5.88;5.28;;;18.80;86.40;;;;;;5090689;28;20224;-64
2023/04/23 05:20:09;;;;;;;5.72;5.30;;;18.80;85.50;;;;;;5091384;28;20204;-64
2023/04/23 05:22:58;;;;;;;6.78;4.88;;;18.80;86.30;;;;;;5091541;28;20200;-64
2023/04/23 05:25:46;;;;;;;7.22;6.47;;;18.80;86.70;;;;;;5090730;28;20295;-64
2023/04/23 05:28:34;;;;;;;6.07;5.57;;;18.70;87.50;;;;;;5091110;28;20206;-64
2023/04/23 05:31:22;;;;;;;5.47;4.88;;;18.70;87.70;;;;;;5091377;28;20576;-64
2023/04/23 05:34:10;;;;;;;6.30;5.53;;;18.70;87.50;;;;;;5091996;28;20205;-64
2023/04/23 05:36:59;;;;;;;6.38;5.40;;;18.70;88.10;;;;;;5091159;28;20325;-64
2023/04/23 05:39:47;;;;;;;7.55;5.68;;;18.70;88.20;;;;;;5090765;28;20275;-64
2023/04/23 05:42:36;;;;;;;6.53;5.88;;;18.70;88.10;;;;;;5092422;28;20286;-64
2023/04/23 05:45:24;;;;;;;7.10;5.78;;;18.60;95.60;;;;;;5091382;28;20243;-64
2023/04/23 05:48:13;;;;;;;7.13;5.75;;;18.70;89.50;;;;;;5090481;28;20206;-64
2023/04/23 05:51:01;;;;;;;8.00;5.65;;;18.70;89.50;;;;;;5091148;28;20609;-64
2023/04/23 05:53:50;;;;;;;7.03;6.15;;;18.70;90.30;;;;;;5091478;28;20192;-64
2023/04/23 05:56:38;;;;;;;5.20;4.80;;;18.70;90.20;;;;;;5090593;28;20567;-64
2023/04/23 05:59:26;;;;;;;5.80;5.30;;;18.80;90.30;;;;;;5075018;28;20200;-64
2023/04/23 06:02:15;;;;;;;6.30;5.70;;;18.80;90.40;;;;;;5074944;28;20299;-68
2023/04/23 06:05:03;;;;;;;7.85;5.82;;;18.80;90.60;;;;;;5075393;28;20686;-64
2023/04/23 06:07:52;;;;;;;6.38;5.78;;;18.90;90.10;;;;;;5075423;28;20202;-64
2023/04/23 06:10:42;;;;;;;5.60;4.90;;;18.90;90.50;;;;;;5074791;28;20204;-64
2023/04/23 06:13:30;;;;;;;6.07;5.47;;;18.90;90.20;;;;;;5074927;28;20753;-64
2023/04/23 06:16:18;;;;;;;5.70;5.20;;;18.90;90.20;;;;;;5075068;28;20212;-64
2023/04/23 06:19:06;;;;;;;8.07;5.15;;;19.00;90.30;;;;;;5074475;28;20196;-64
2023/04/23 06:21:54;;;;;;;5.70;5.13;;;18.90;88.50;;;;;;5074698;28;20220;-64
2023/04/23 06:24:42;;;;;;;6.45;5.38;;;18.90;88.40;;;;;;5074938;28;20211;-64
2023/04/23 06:27:32;;;;;;;6.05;5.30;;;18.90;88.90;;;;;;5075135;28;20251;-64
2023/04/23 06:30:20;;;;;;;5.70;5.10;;;18.90;89.70;;;;;;5075353;28;20205;-64
2023/04/23 06:33:09;;;;;;;5.03;4.50;;;18.80;89.00;;;;;;5073896;28;20327;-64
2023/04/23 06:35:57;;;;;;;7.70;4.90;;;18.80;89.10;;;;;;5075410;28;20244;-64
2023/04/23 06:38:45;;;;;;;5.20;4.80;;;18.80;89.50;;;;;;5075335;28;20288;-64
2023/04/23 06:41:33;;;;;;;6.15;5.35;;;18.80;90.00;;;;;;5074647;28;20638;-64
2023/04/23 06:44:22;;;;;;;5.63;5.13;;;18.80;90.30;;;;;;5073944;28;20200;-64
2023/04/23 06:47:10;;;;;;;5.88;4.45;;;18.80;90.30;;;;;;5074477;28;20715;-64
2023/04/23 06:49:59;;;;;;;5.80;5.30;;;18.70;90.00;;;;;;5074411;28;20201;-64
2023/04/23 06:52:47;;;;;;;10.68;5.28;;;18.70;90.60;;;;;;5074175;28;20188;-64
2023/04/23 06:55:35;;;;;;;4.97;4.57;;;18.70;90.80;;;;;;5073884;28;20217;-64
2023/04/23 06:58:29;;;;;;;5.75;5.10;;;18.70;91.00;;;;;;5094341;28;20680;-64
2023/04/23 07:01:19;;;;;;;6.40;5.47;;;18.70;90.90;;;;;;5093955;28;20216;-64
2023/04/23 07:04:07;;;;;;;5.72;4.72;;;18.70;91.00;;;;;;5094463;28;20293;-64
2023/04/23 07:06:56;;;;;;;5.50;4.75;;;18.70;90.30;;;;;;5093154;28;20716;-65
2023/04/23 07:09:44;;;;;;;6.30;4.80;;;18.70;91.20;;;;;;5093586;28;20279;-64
2023/04/23 07:12:32;;;;;;;5.15;4.45;;;18.70;90.80;;;;;;5094652;28;20200;-64
2023/04/23 07:15:20;;;;;;;5.93;5.43;;;18.50;97.20;;;;;;5094251;28;20287;-64
2023/04/23 07:18:09;;;;;;;6.20;5.43;;;18.70;91.90;;;;;;5094485;28;20207;-64
2023/04/23 07:20:57;;;;;;;4.97;4.43;;;18.70;91.90;;;;;;5094195;28;20206;-64
2023/04/23 07:23:45;;;;;;;6.88;5.57;;;18.70;91.80;;;;;;5093042;28;20265;-66
2023/04/23 07:26:33;;;;;;;5.70;5.00;;;18.70;91.90;;;;;;5093596;28;20706;-64
2023/04/23 07:29:22;;;;;;;4.65;4.25;;;18.80;91.90;;;;;;5093668;28;20739;-64
2023/04/23 07:32:10;;;;;;;4.53;4.13;;;18.70;91.70;;;;;;5093346;28;20211;-64
2023/04/23 07:35:00;;;;;;;5.03;4.63;;;18.70;91.90;;;;;;5094028;28;20192;-64
2023/04/23 07:37:52;;;;;;;6.10;5.13;;;18.70;90.60;;;;;;5093996;28;20265;-64
2023/04/23 07:40:40;;;;;;;4.72;4.32;;;18.70;91.60;;;;;;5094842;28;20282;-64
2023/04/23 07:43:28;;;;;;;4.95;4.00;;;18.70;91.50;;;;;;5093685;28;20196;-64
2023/04/23 07:46:16;;;;;;;4.70;4.28;;;18.70;91.40;;;;;;5093270;28;20242;-64
2023/04/23 07:49:06;;;;;;;4.63;3.83;;;18.70;91.30;;;;;;5093589;28;20199;-64
2023/04/23 07:51:55;;;;;;;5.32;4.38;;;18.70;91.00;;;;;;5092601;28;20188;-64
2023/04/23 07:54:43;;;;;;;4.60;4.05;;;18.70;91.60;;;;;;5093790;28;20735;-64
2023/04/23 07:57:31;;;;;;;4.25;3.85;;;18.70;91.20;;;;;;5080103;28;20225;-64
2023/04/23 08:00:19;;;;;;;4.13;3.42;;;18.80;91.10;;;;;;5074182;28;20589;-64
2023/04/23 08:03:07;;;;;;;4.45;4.05;;;18.70;91.30;;;;;;5075523;28;20630;-64
2023/04/23 08:05:56;;;;;;;6.72;4.28;;;18.80;91.20;;;;;;5076047;28;20739;-64
2023/04/23 08:08:45;;;;;;;5.13;4.72;;;18.80;91.00;;;;;;5076546;28;20615;-64
2023/04/23 08:11:34;;;;;;;4.32;4.03;;;18.70;91.40;;;;;;5076100;28;20207;-64
2023/04/23 08:14:21;;;;;;;4.65;4.15;;;18.70;91.10;;;;;;5076458;28;20283;-64
2023/04/23 08:17:09;;;;;;;6.30;4.30;;;18.70;91.50;;;;;;5076322;28;20217;-64
2023/04/23 08:19:57;;;;;;;4.40;4.00;;;18.70;91.90;;;;;;5076040;28;20237;-64
2023/04/23 08:22:46;;;;;;;4.93;4.43;;;18.70;91.90;;;;;;5074326;28;20266;-64
2023/04/23 08:25:35;;;;;;;5.15;4.65;;;18.70;92.10;;;;;;5074617;28;20221;-64
2023/04/23 08:28:23;;;;;;;5.80;5.13;;;18.70;92.70;;;;;;5076521;28;20264;-64
2023/04/23 08:31:12;;;;;;;6.90;4.18;;;18.70;92.90;;;;;;5075185;28;20193;-64
2023/04/23 08:34:14;;;;;;;4.75;4.32;;;18.60;92.80;;;;;;5076007;28;20196;-64
2023/04/23 08:37:03;;;;;;;5.40;4.90;;;18.70;92.50;;;;;;5073458;28;20689;-64
2023/04/23 08:39:51;;;;;;;5.47;4.43;;;18.70;92.50;;;;;;5072836;28;20732;-65
2023/04/23 08:42:44;;;;;;;5.18;4.35;;;18.80;92.40;;;;;;5072101;28;20594;-64
2023/04/23 08:45:40;;;;;;;4.28;3.70;;;18.80;92.80;;;;;;5072892;28;20639;-64
2023/04/23 08:48:29;;;;;;;5.38;4.30;;;18.80;92.70;;;;;;5072325;28;20284;-64
2023/04/23 08:51:18;;;;;;;5.25;4.85;;;18.80;92.90;;;;;;5072647;28;20692;-64
2023/04/23 08:54:10;;;;;;;5.35;4.78;;;18.70;92.70;;;;;;5072310;28;20645;-64
2023/04/23 08:56:59;;;;;;;5.50;4.00;;;18.70;92.50;;;;;;5079002;28;20215;-64
2023/04/23 08:59:49;;;;;;;4.13;3.72;;;18.60;92.20;;;;;;5091819;28;20200;-64
2023/04/23 09:02:37;;;;;;;5.20;4.50;;;18.60;92.30;;;;;;5091556;28;20216;-64
2023/04/23 09:05:26;;;;;;;4.07;3.70;;;18.30;97.30;;;;;;5091249;28;20282;-64
2023/04/23 09:08:15;;;;;;;3.90;3.60;;;18.60;91.20;;;;;;5091820;28;20685;-64
2023/04/23 09:11:05;;;;;;;3.50;3.20;;;18.60;91.20;;;;;;5092714;28;20652;-65
2023/04/23 09:13:54;;;;;;;2.55;2.35;;;18.50;91.10;;;;;;5092145;28;20211;-65
2023/04/23 09:16:43;;;;;;;2.95;2.75;;;18.50;91.10;;;;;;5092872;28;20213;-65
2023/04/23 09:19:31;;;;;;;2.50;2.28;;;18.40;90.60;;;;;;5091741;28;20199;-65
2023/04/23 09:22:38;;;;;;;2.47;2.28;;;18.40;90.70;;;;;;5091991;28;20734;-65
2023/04/23 09:25:26;;;;;;;3.25;2.67;;;18.30;96.50;;;;;;5091603;28;20723;-66
2023/04/23 09:28:14;;;;;;;2.55;2.35;;;18.40;90.80;;;;;;5092318;28;20296;-65
2023/04/23 09:31:04;;;;;;;2.92;2.63;;;18.30;90.90;;;;;;5092461;28;20200;-65
2023/04/23 09:33:54;;;;;;;3.83;3.53;;;18.30;91.10;;;;;;5091701;28;20192;-65
2023/04/23 09:36:43;;;;;;;3.85;3.20;;;18.20;91.10;;;;;;5091459;28;20289;-65
2023/04/23 09:39:34;;;;;;;3.45;3.15;;;18.20;91.20;;;;;;5091543;28;20681;-65
2023/04/23 09:42:23;;;;;;;4.32;3.75;;;18.20;91.30;;;;;;5090393;28;20241;-66
2023/04/23 09:45:12;;;;;;;4.65;4.25;;;17.90;94.30;;;;;;5095574;28;20196;-65
2023/04/23 09:48:00;;;;;;;4.40;4.00;;;18.10;91.20;;;;;;5104835;28;20260;-65
2023/04/23 09:50:50;;;;;;;4.70;4.30;;;18.00;91.20;;;;;;5104577;28;20213;-65
2023/04/23 09:53:41;;;;;;;4.85;4.35;;;18.00;91.30;;;;;;5102631;28;20200;-65
2023/04/23 09:56:30;;;;;;;5.07;4.65;;;18.10;91.30;;;;;;5089699;28;20209;-65
2023/04/23 09:59:23;;;;;;;5.05;4.55;;;18.00;91.30;;;;;;5072375;28;20224;-65
2023/04/23 10:02:32;;;;;;;5.32;4.80;;;18.00;91.30;;;;;;5071625;28;20224;-65
2023/04/23 10:05:22;;;;;;;6.82;5.18;;;17.50;97.20;;;;;;5071522;28;20580;-65
2023/04/23 10:08:18;;;;;;;6.32;5.18;;;18.00;91.70;;;;;;5072338;28;20200;-65
2023/04/23 10:11:07;;;;;;;6.50;5.05;;;18.10;92.00;;;;;;5072449;28;20753;-65
2023/04/23 10:14:08;;;;;;;7.88;6.15;;;18.10;92.10;;;;;;5072028;28;20547;-64
2023/04/23 10:16:58;;;;;;;6.40;5.28;;;18.00;91.40;;;;;;5071515;28;20347;-65
2023/04/23 10:19:49;;;;;;;7.22;5.85;;;18.00;91.20;;;;;;5072476;28;20196;-65
2023/04/23 10:22:39;;;;;;;7.22;6.47;;;18.00;91.30;;;;;;5070720;28;20245;-64
2023/04/23 10:25:28;;;;;;;7.13;5.72;;;18.10;97.90;;;;;;5071711;28;20275;-65
2023/04/23 10:28:20;;;;;;;13.65;7.45;;;18.20;91.20;;;;;;5072078;28;20744;-65
2023/04/23 10:31:10;;;;;;;6.25;5.65;;;18.10;90.80;;;;;;5070926;28;20201;-66
2023/04/23 10:33:58;;;;;;;6.30;5.25;;;18.10;90.60;;;;;;5072126;28;20550;-65
2023/04/23 10:36:47;;;;;;;3.65;3.35;;;18.10;90.50;;;;;;5071469;28;20249;-65
2023/04/23 10:39:36;;;;;;;5.18;4.07;;;18.20;90.20;;;;;;5070536;28;20201;-65
2023/04/23 10:42:26;;;;;;;5.45;4.43;;;18.20;90.30;;;;;;5073657;28;20197;-64
2023/04/23 10:45:15;;;;;;;5.20;4.15;;;18.50;95.60;;;;;;5075074;28;20199;-65
2023/04/23 10:48:07;;;;;;;3.97;3.50;;;18.20;90.30;;;;;;5074327;28;20287;-65
2023/04/23 10:50:58;;;;;;;4.90;4.40;;;18.20;90.50;;;;;;5075140;28;20567;-65
2023/04/23 10:54:08;;;;;;;4.20;3.83;;;18.20;90.40;;;;;;5074983;28;20188;-65
2023/04/23 10:57:00;;;;;;;4.55;4.15;;;18.20;90.30;;;;;;5075015;28;20213;-64
2023/04/23 10:59:55;;;;;;;3.65;3.35;;;18.20;90.30;;;;;;5075569;28;20685;-62
2023/04/23 11:02:43;;;;;;;3.40;3.10;;;18.10;88.40;;;;;;5074944;28;20208;-64
2023/04/23 11:05:35;;;;;;;2.92;2.72;;;18.00;87.70;;;;;;5074930;28;20228;-65
2023/04/23 11:08:23;;;;;;;3.10;2.83;;;18.00;87.30;;;;;;5075142;28;20736;-62
2023/04/23 11:11:11;;;;;;;3.03;2.78;;;18.10;86.30;;;;;;5074913;28;20196;-62
2023/04/23 11:14:12;;;;;;;3.20;2.88;;;18.00;86.50;;;;;;5074998;28;20241;-62
2023/04/23 11:17:02;;;;;;;3.45;2.95;;;18.00;86.60;;;;;;5074563;28;20712;-65
2023/04/23 11:20:10;;;;;;;4.10;3.70;;;18.10;86.80;;;;;;5074421;28;20262;-63
2023/04/23 11:22:58;;;;;;;2.75;2.55;;;18.20;87.00;;;;;;5073047;28;20196;-63
2023/04/23 11:25:46;;;;;;;6.45;3.90;;;18.20;86.50;;;;;;5074712;28;20303;-63
2023/04/23 11:28:37;;;;;;;3.42;2.97;;;18.30;87.10;;;;;;5074616;28;20691;-63
2023/04/23 11:31:26;;;;;;;4.03;3.67;;;18.40;86.60;;;;;;5073845;28;20208;-63
2023/04/23 11:34:16;;;;;;;4.85;4.20;;;18.40;86.60;;;;;;5072894;28;20283;-64
2023/04/23 11:37:04;;;;;;;4.22;3.40;;;18.30;85.80;;;;;;5073797;28;20291;-64
2023/04/23 11:39:52;;;;;;;4.60;3.30;;;18.40;85.40;;;;;;5074492;28;20242;-64
2023/04/23 11:42:45;;;;;;;3.28;3.03;;;18.40;84.40;;;;;;5074308;28;20676;-64
2023/04/23 11:45:33;;;;;;;2.78;2.58;;;18.40;84.60;;;;;;5073392;28;20224;-63
2023/04/23 11:48:21;;;;;;;2.97;2.75;;;18.40;84.20;;;;;;5073478;28;20232;-64
2023/04/23 11:51:10;;;;;;;3.20;2.75;;;18.40;82.60;;;;;;5074222;28;20197;-64
2023/04/23 11:54:03;;;;;;;2.88;2.65;;;18.40;82.00;;;;;;5073598;28;20232;-63
2023/04/23 11:56:53;;;;;;;3.10;2.88;;;18.40;81.80;;;;;;5073325;28;20223;-64
2023/04/23 11:59:41;;;;;;;3.75;3.30;;;18.40;82.40;;;;;;5074424;28;20204;-64
2023/04/23 12:02:29;;;;;;;3.90;3.35;;;18.50;83.00;;;;;;5072713;28;20574;-64
2023/04/23 12:05:21;;;;;;;4.25;3.85;;;18.70;91.60;;;;;;5073077;28;20688;-64
2023/04/23 12:08:11;;;;;;;4.07;3.40;;;18.40;82.10;;;;;;5074325;28;20232;-63
2023/04/23 12:11:01;;;;;;;3.17;2.90;;;18.40;82.20;;;;;;5074271;28;20207;-64
2023/04/23 12:13:49;;;;;;;4.10;3.70;;;18.50;82.20;;;;;;5073690;28;20188;-63
2023/04/23 12:16:39;;;;;;;3.05;2.55;;;18.50;81.80;;;;;;5072776;28;20224;-63
2023/04/23 12:19:29;;;;;;;3.60;3.13;;;18.60;82.50;;;;;;5072531;28;20290;-64
2023/04/23 12:22:17;;;;;;;3.08;2.78;;;18.60;81.00;;;;;;5072058;28;20201;-63
2023/04/23 12:25:08;;;;;;;3.13;2.83;;;;;;;;;;5072707;28;20299;-64
2023/04/23 12:27:59;;;;;;;3.47;3.17;;;18.70;79.40;;;;;;5073628;28;20219;-64
2023/04/23 12:30:47;;;;;;;5.25;3.92;;;18.60;79.90;;;;;;5073056;28;20200;-63
2023/04/23 12:33:35;;;;;;;3.67;3.38;;;18.60;79.90;;;;;;5072503;28;20196;-63
2023/04/23 12:36:28;;;;;;;3.63;2.65;;;18.60;79.90;;;;;;5072044;28;20303;-63
2023/04/23 12:39:30;;;;;;;2.60;2.40;;;18.60;80.10;;;;;;5072595;28;20203;-63
2023/04/23 12:42:19;;;;;;;3.22;2.60;;;18.70;80.00;;;;;;5071795;28;20315;-63
2023/04/23 12:45:09;;;;;;;2.33;2.22;;;18.90;80.20;;;;;;5072647;28;20224;-64
2023/04/23 12:47:57;;;;;;;3.33;2.70;;;19.00;79.80;;;;;;5072359;28;20611;-64
2023/04/23 12:50:46;;;;;;;2.53;2.10;;;19.10;79.20;;;;;;5072459;28;20200;-63
2023/04/23 12:53:34;;;;;;;2.28;2.17;;;19.30;79.40;;;;;;5079264;28;20254;-64
2023/04/23 12:56:22;;;;;;;3.92;2.47;;;19.40;79.40;;;;;;5077850;28;20220;-63
2023/04/23 12:59:11;;;;;;;3.35;2.10;;;19.50;79.30;;;;;;5073380;28;20432;-63
2023/04/23 13:02:00;;;;;;;2.78;2.55;;;19.60;79.40;;;;;;5072276;28;20582;-64
2023/04/23 13:04:50;;;;;;;2.50;2.30;;;19.60;79.60;;;;;;5071716;28;20234;-63
2023/04/23 13:07:38;;;;;;;2.40;2.20;;;19.60;78.30;;;;;;5072658;28;20277;-64
2023/04/23 13:10:26;;;;;;;3.05;2.83;;;19.60;78.80;;;;;;5071752;28;20275;-64
2023/04/23 13:13:14;;;;;;;2.50;2.30;;;19.70;78.50;;;;;;5072611;28;20196;-63
2023/04/23 13:16:04;;;;;;;2.80;2.50;;;19.80;78.50;;;;;;5072067;28;20219;-64
2023/04/23 13:18:52;;;;;;;2.40;2.20;;;19.80;78.70;;;;;;5071528;28;20200;-63
2023/04/23 13:21:40;;;;;;;2.80;2.50;;;20.00;78.90;;;;;;5071009;28;20302;-64
2023/04/23 13:24:28;;;;;;;2.50;2.30;;;20.00;78.60;;;;;;5072022;28;20301;-64
2023/04/23 13:27:16;;;;;;;2.78;2.30;;;19.90;78.60;;;;;;5072894;28;20274;-64
2023/04/23 13:30:05;;;;;;;2.88;2.67;;;19.90;78.80;;;;;;5072263;28;20197;-64
2023/04/23 13:32:56;;;;;;;2.75;2.55;;;19.90;78.90;;;;;;5072467;28;20283;-64
2023/04/23 13:35:44;;;;;;;2.42;2.20;;;19.90;79.00;;;;;;5071919;28;20262;-64
2023/04/23 13:38:32;;;;;;;3.13;2.35;;;19.90;79.20;;;;;;5071663;28;20200;-64
2023/04/23 13:41:20;;;;;;;2.47;2.25;;;19.90;79.20;;;;;;5071829;28;20196;-63
2023/04/23 13:44:09;;;;;;;2.47;2.28;;;19.90;79.60;;;;;;5071796;28;20197;-64
2023/04/23 13:46:57;;;;;;;2.45;2.30;;;19.90;79.50;;;;;;5071468;28;20224;-64
2023/04/23 13:49:48;;;;;;;2.58;2.03;;;19.90;79.80;;;;;;5071913;28;20257;-63
2023/04/23 13:52:36;;;;;;;2.30;2.10;;;20.00;79.90;;;;;;5072275;28;20280;-63
2023/04/23 13:55:24;;;;;;;3.80;2.25;;;19.70;89.30;;;;;;5072115;28;20196;-63
2023/04/23 13:58:12;;;;;;;1.90;1.80;;;20.10;77.00;;;;;;5071970;28;20283;-63
2023/04/23 14:01:00;;;;;;;2.08;1.88;;;19.80;76.20;;;;;;5072259;28;20204;-63
2023/04/23 14:03:48;;;;;;;1.98;1.88;;;19.90;77.00;;;;;;5071831;28;20197;-64
2023/04/23 14:06:38;;;;;;;6.47;1.88;;;19.90;75.60;;;;;;5071537;28;20307;-63
2023/04/23 14:09:26;;;;;;;1.60;1.50;;;20.00;75.60;;;;;;5072722;28;20201;-64
2023/04/23 14:12:14;;;;;;;1.63;1.52;;;20.10;74.70;;;;;;5072156;28;20275;-64
2023/04/23 14:15:02;;;;;;;1.98;1.88;;;20.20;74.00;;;;;;5071717;28;20283;-64
2023/04/23 14:17:51;;;;;;;1.60;1.50;;;20.20;73.40;;;;;;5075023;28;20342;-64
2023/04/23 14:20:40;;;;;;;1.67;1.58;;;20.20;73.60;;;;;;5075785;28;20208;-63
2023/04/23 14:23:49;;;;;;;1.65;1.55;;;20.30;74.20;;;;;;5074535;28;20615;-64
2023/04/23 14:26:41;;;;;;;1.60;1.50;;;20.40;74.80;;;;;;5074674;28;20227;-63
2023/04/23 14:29:40;;;;;;;1.83;1.60;;;20.40;74.40;;;;;;5075497;28;20274;-64
2023/04/23 14:32:28;;;;;;;4.75;1.90;;;20.40;74.20;;;;;;5075903;28;20201;-64
2023/04/23 14:35:17;;;;;;;1.80;1.70;;;20.70;81.00;;;;;;5075100;28;20662;-64
2023/04/23 14:38:13;;;;;;;1.77;1.67;;;20.50;75.40;;;;;;5075789;28;20280;-64
2023/04/23 14:41:03;;;;;;;1.70;1.60;;;20.50;74.60;;;;;;5075067;28;20199;-63